Airfield :
LOGIN :

Register | Disclaimer

   EN    FR    IT 

 










Legend :    VFR   Marginal VFR   IFR   Intensive IFR   Very Intensive IFR
Visi :
Ceiling :
>= 8 km
>= 3000ft
5 to 8 km
1000 to 3000 ft
1500m to 5 km
500 to 1000 ft
800 to 1500m
200 to 500 ft
< 800m
< 200 ft
Symbols :   Thunderstorms  Fog  Heavy snow  Heavy precipitations  Wind > 20 kt
SIGMETs :     Misc.  Thunderstorms  Icing  Turbulence  Mountain Waves  Volcanic Ashes






- Airport Elevation : 1302 ft
- IATA code : GNB


LFLS - Grenoble / St. Geoirs

CURRENT METAR :
  • 300900Z AUTO VRB02KT 9999 BKN021 BKN029 OVC036 04/02 Q1017 NOSIG

EXPIRED METARs :
  • 300830Z AUTO 33005KT 300V360 9999 FEW018 BKN028 OVC036 04/01 Q1017 NOSIG
  • 300800Z AUTO 34007KT 9999 FEW016 SCT027 BKN032 04/02 Q1016 NOSIG
  • 300730Z AUTO 33008KT 9999 SCT018 SCT027 OVC036 03/01 Q1016 NOSIG
  • 300700Z AUTO 33007KT 9999 SCT019 OVC029 03/01 Q1016 TEMPO BKN007
  • 300630Z AUTO 34007KT 9999 SCT017 BKN026 OVC034 03/01 Q1016 TEMPO BKN007

TAF TAF LFLS
Valid from the 30 at 09:00 until the 31 at 09:00 UTC


300800Z 3009/3109 34007KT 9999 BKN030
BECMG 3020/3022 CAVOK
ATIS : +33 4 76 65 55 89



MET'MAP, your aeronautical weather chart ! - Copyright ORBIFLY December 2007 - Disclaimer

ORBIFLY MET'MAP TEAM :

Programming & Development : Alexandra Zaïnal
Concept & original design : Baudouin d'Aumeries
Assistance for programming : Marc-Olivier Méhu
Technical & hardware support : Manuel Goepfert

Contact : metmap@orbifly.com




SOURCES & CREDITS :

   NOAA